sensor_id;sensor_type;location;lat;lon;timestamp;P1;durP1;ratioP1;P2;durP2;ratioP2
28309;SDS011;15571;50.974;13.936;2022-07-12T00:24:24;3.88;;;1.33;;
28309;SDS011;15571;50.974;13.936;2022-07-12T01:21:49;1.98;;;1.52;;
28309;SDS011;15571;50.974;13.936;2022-07-12T01:24:57;4.45;;;1.40;;
28309;SDS011;15571;50.974;13.936;2022-07-12T01:28:01;3.22;;;1.00;;
28309;SDS011;15571;50.974;13.936;2022-07-12T01:31:05;1.42;;;1.20;;
28309;SDS011;15571;50.974;13.936;2022-07-12T01:34:11;2.90;;;1.13;;
28309;SDS011;15571;50.974;13.936;2022-07-12T01:37:14;1.90;;;1.20;;
28309;SDS011;15571;50.974;13.936;2022-07-12T01:40:19;1.05;;;0.95;;
28309;SDS011;15571;50.974;13.936;2022-07-12T01:43:23;1.70;;;1.40;;
28309;SDS011;15571;50.974;13.936;2022-07-12T01:46:28;2.55;;;1.20;;
28309;SDS011;15571;50.974;13.936;2022-07-12T01:49:32;1.80;;;1.10;;
28309;SDS011;15571;50.974;13.936;2022-07-12T01:52:35;2.13;;;1.52;;
28309;SDS011;15571;50.974;13.936;2022-07-12T01:55:41;1.20;;;1.10;;
28309;SDS011;15571;50.974;13.936;2022-07-12T01:58:45;2.25;;;1.42;;
28309;SDS011;15571;50.974;13.936;2022-07-12T02:01:49;1.55;;;1.45;;
28309;SDS011;15571;50.974;13.936;2022-07-12T02:04:52;3.70;;;1.38;;
28309;SDS011;15571;50.974;13.936;2022-07-12T02:07:56;2.20;;;1.40;;
28309;SDS011;15571;50.974;13.936;2022-07-12T02:11:01;2.17;;;1.30;;
28309;SDS011;15571;50.974;13.936;2022-07-12T02:14:04;4.18;;;1.42;;
28309;SDS011;15571;50.974;13.936;2022-07-12T02:17:10;1.55;;;1.42;;
28309;SDS011;15571;50.974;13.936;2022-07-12T02:20:16;1.40;;;1.30;;
28309;SDS011;15571;50.974;13.936;2022-07-12T02:23:19;5.97;;;1.63;;
28309;SDS011;15571;50.974;13.936;2022-07-12T02:26:25;3.13;;;1.33;;
28309;SDS011;15571;50.974;13.936;2022-07-12T02:29:28;1.60;;;1.27;;
28309;SDS011;15571;50.974;13.936;2022-07-12T02:32:31;3.70;;;1.40;;
28309;SDS011;15571;50.974;13.936;2022-07-12T02:35:37;2.83;;;1.50;;
28309;SDS011;15571;50.974;13.936;2022-07-12T02:38:40;2.38;;;1.30;;
28309;SDS011;15571;50.974;13.936;2022-07-12T02:41:50;1.40;;;1.30;;
28309;SDS011;15571;50.974;13.936;2022-07-12T02:44:53;3.22;;;1.27;;
28309;SDS011;15571;50.974;13.936;2022-07-12T02:47:55;2.10;;;1.58;;
28309;SDS011;15571;50.974;13.936;2022-07-12T02:50:58;3.08;;;1.25;;
28309;SDS011;15571;50.974;13.936;2022-07-12T02:54:04;3.00;;;1.42;;
28309;SDS011;15571;50.974;13.936;2022-07-12T02:57:14;1.25;;;1.13;;
28309;SDS011;15571;50.974;13.936;2022-07-12T03:00:21;1.95;;;1.60;;
28309;SDS011;15571;50.974;13.936;2022-07-12T03:03:32;3.65;;;1.50;;
28309;SDS011;15571;50.974;13.936;2022-07-12T03:06:44;2.47;;;2.20;;
28309;SDS011;15571;50.974;13.936;2022-07-12T03:09:46;3.10;;;1.65;;
28309;SDS011;15571;50.974;13.936;2022-07-12T03:12:51;2.50;;;1.40;;
28309;SDS011;15571;50.974;13.936;2022-07-12T03:15:54;3.38;;;1.67;;
28309;SDS011;15571;50.974;13.936;2022-07-12T03:18:57;2.40;;;1.23;;
28309;SDS011;15571;50.974;13.936;2022-07-12T03:22:00;3.30;;;1.55;;
28309;SDS011;15571;50.974;13.936;2022-07-12T03:25:06;1.45;;;1.30;;
28309;SDS011;15571;50.974;13.936;2022-07-12T03:28:11;1.88;;;1.35;;
28309;SDS011;15571;50.974;13.936;2022-07-12T03:31:14;3.53;;;1.33;;
28309;SDS011;15571;50.974;13.936;2022-07-12T03:34:17;1.50;;;1.40;;
28309;SDS011;15571;50.974;13.936;2022-07-12T03:37:20;1.90;;;1.60;;
28309;SDS011;15571;50.974;13.936;2022-07-12T03:40:24;3.58;;;1.50;;
28309;SDS011;15571;50.974;13.936;2022-07-12T03:43:31;5.20;;;1.58;;
28309;SDS011;15571;50.974;13.936;2022-07-12T03:46:40;5.50;;;2.20;;
28309;SDS011;15571;50.974;13.936;2022-07-12T03:49:43;2.63;;;1.75;;
28309;SDS011;15571;50.974;13.936;2022-07-12T03:52:47;1.92;;;1.55;;
28309;SDS011;15571;50.974;13.936;2022-07-12T03:55:50;2.20;;;1.70;;
28309;SDS011;15571;50.974;13.936;2022-07-12T03:58:55;5.43;;;1.88;;
28309;SDS011;15571;50.974;13.936;2022-07-12T04:01:58;2.20;;;1.70;;
28309;SDS011;15571;50.974;13.936;2022-07-12T04:05:06;2.63;;;1.70;;
28309;SDS011;15571;50.974;13.936;2022-07-12T04:08:15;2.10;;;1.60;;
28309;SDS011;15571;50.974;13.936;2022-07-12T04:11:20;1.65;;;1.50;;
28309;SDS011;15571;50.974;13.936;2022-07-12T04:14:24;5.00;;;1.50;;
28309;SDS011;15571;50.974;13.936;2022-07-12T04:17:29;3.28;;;1.70;;
28309;SDS011;15571;50.974;13.936;2022-07-12T04:20:32;2.47;;;2.20;;
28309;SDS011;15571;50.974;13.936;2022-07-12T04:23:34;2.25;;;2.05;;
28309;SDS011;15571;50.974;13.936;2022-07-12T04:26:37;2.40;;;1.85;;
28309;SDS011;15571;50.974;13.936;2022-07-12T04:29:43;6.72;;;2.50;;
28309;SDS011;15571;50.974;13.936;2022-07-12T04:32:46;4.65;;;2.05;;
28309;SDS011;15571;50.974;13.936;2022-07-12T04:35:52;4.00;;;2.05;;
28309;SDS011;15571;50.974;13.936;2022-07-12T04:38:55;2.45;;;1.70;;
28309;SDS011;15571;50.974;13.936;2022-07-12T04:41:57;3.30;;;1.65;;
28309;SDS011;15571;50.974;13.936;2022-07-12T04:45:05;4.97;;;2.00;;
28309;SDS011;15571;50.974;13.936;2022-07-12T04:48:08;4.85;;;2.03;;
28309;SDS011;15571;50.974;13.936;2022-07-12T04:51:11;2.33;;;1.63;;
28309;SDS011;15571;50.974;13.936;2022-07-12T04:54:18;1.70;;;1.60;;
28309;SDS011;15571;50.974;13.936;2022-07-12T04:57:22;2.30;;;1.83;;
28309;SDS011;15571;50.974;13.936;2022-07-12T05:00:29;2.20;;;1.50;;
28309;SDS011;15571;50.974;13.936;2022-07-12T05:03:32;1.98;;;1.77;;
28309;SDS011;15571;50.974;13.936;2022-07-12T05:06:42;2.67;;;1.90;;
28309;SDS011;15571;50.974;13.936;2022-07-12T05:09:50;4.28;;;2.50;;
28309;SDS011;15571;50.974;13.936;2022-07-12T05:12:55;1.75;;;1.50;;
28309;SDS011;15571;50.974;13.936;2022-07-12T05:16:00;2.63;;;1.83;;
28309;SDS011;15571;50.974;13.936;2022-07-12T05:19:03;2.88;;;2.00;;
28309;SDS011;15571;50.974;13.936;2022-07-12T05:22:06;2.97;;;2.28;;
28309;SDS011;15571;50.974;13.936;2022-07-12T05:25:14;8.00;;;2.28;;
28309;SDS011;15571;50.974;13.936;2022-07-12T05:28:17;3.58;;;2.80;;
28309;SDS011;15571;50.974;13.936;2022-07-12T05:31:23;4.15;;;2.65;;
28309;SDS011;15571;50.974;13.936;2022-07-12T05:34:28;3.85;;;2.88;;
28309;SDS011;15571;50.974;13.936;2022-07-12T05:37:33;4.25;;;2.45;;
28309;SDS011;15571;50.974;13.936;2022-07-12T05:40:39;3.65;;;2.90;;
28309;SDS011;15571;50.974;13.936;2022-07-12T05:43:45;25.77;;;3.80;;
28309;SDS011;15571;50.974;13.936;2022-07-12T05:46:50;2.72;;;2.17;;
28309;SDS011;15571;50.974;13.936;2022-07-12T05:49:54;4.40;;;2.40;;
28309;SDS011;15571;50.974;13.936;2022-07-12T05:53:00;3.40;;;2.17;;
28309;SDS011;15571;50.974;13.936;2022-07-12T05:56:20;3.30;;;2.35;;
28309;SDS011;15571;50.974;13.936;2022-07-12T05:59:26;4.65;;;3.13;;
28309;SDS011;15571;50.974;13.936;2022-07-12T06:02:32;6.65;;;3.42;;
28309;SDS011;15571;50.974;13.936;2022-07-12T06:05:35;5.53;;;3.20;;
28309;SDS011;15571;50.974;13.936;2022-07-12T06:08:45;3.10;;;2.80;;
28309;SDS011;15571;50.974;13.936;2022-07-12T06:11:50;4.20;;;2.67;;
28309;SDS011;15571;50.974;13.936;2022-07-12T06:14:55;3.42;;;3.08;;
28309;SDS011;15571;50.974;13.936;2022-07-12T06:18:00;7.70;;;3.85;;
28309;SDS011;15571;50.974;13.936;2022-07-12T06:21:03;3.55;;;3.17;;
28309;SDS011;15571;50.974;13.936;2022-07-12T06:24:06;7.18;;;3.95;;
28309;SDS011;15571;50.974;13.936;2022-07-12T06:27:09;5.55;;;3.92;;
28309;SDS011;15571;50.974;13.936;2022-07-12T06:30:12;4.03;;;3.20;;
28309;SDS011;15571;50.974;13.936;2022-07-12T06:33:28;3.97;;;2.90;;
28309;SDS011;15571;50.974;13.936;2022-07-12T06:36:32;7.20;;;3.80;;
28309;SDS011;15571;50.974;13.936;2022-07-12T06:39:34;7.20;;;3.83;;
28309;SDS011;15571;50.974;13.936;2022-07-12T06:42:41;6.18;;;3.63;;
28309;SDS011;15571;50.974;13.936;2022-07-12T06:45:43;4.88;;;3.95;;
28309;SDS011;15571;50.974;13.936;2022-07-12T06:48:49;6.20;;;3.22;;
28309;SDS011;15571;50.974;13.936;2022-07-12T06:51:52;5.28;;;3.60;;
28309;SDS011;15571;50.974;13.936;2022-07-12T06:54:58;4.22;;;3.83;;
28309;SDS011;15571;50.974;13.936;2022-07-12T06:58:00;6.03;;;4.35;;
28309;SDS011;15571;50.974;13.936;2022-07-12T07:01:03;6.18;;;4.00;;
28309;SDS011;15571;50.974;13.936;2022-07-12T07:04:12;4.85;;;4.35;;
28309;SDS011;15571;50.974;13.936;2022-07-12T07:07:15;5.70;;;4.57;;
28309;SDS011;15571;50.974;13.936;2022-07-12T07:10:18;8.43;;;4.00;;
28309;SDS011;15571;50.974;13.936;2022-07-12T07:13:22;4.20;;;3.55;;
28309;SDS011;15571;50.974;13.936;2022-07-12T07:16:28;5.63;;;4.80;;
28309;SDS011;15571;50.974;13.936;2022-07-12T07:19:33;7.32;;;4.15;;
28309;SDS011;15571;50.974;13.936;2022-07-12T07:22:36;5.00;;;4.18;;
28309;SDS011;15571;50.974;13.936;2022-07-12T07:25:39;4.15;;;3.75;;
28309;SDS011;15571;50.974;13.936;2022-07-12T07:28:42;6.07;;;3.70;;
28309;SDS011;15571;50.974;13.936;2022-07-12T07:31:59;4.78;;;3.80;;
28309;SDS011;15571;50.974;13.936;2022-07-12T07:35:07;4.38;;;3.85;;
28309;SDS011;15571;50.974;13.936;2022-07-12T07:38:14;5.60;;;3.40;;
28309;SDS011;15571;50.974;13.936;2022-07-12T07:41:18;4.18;;;2.97;;
28309;SDS011;15571;50.974;13.936;2022-07-12T07:44:21;4.22;;;3.58;;
28309;SDS011;15571;50.974;13.936;2022-07-12T07:47:27;5.35;;;3.67;;
28309;SDS011;15571;50.974;13.936;2022-07-12T07:50:34;6.30;;;3.60;;
28309;SDS011;15571;50.974;13.936;2022-07-12T07:53:37;4.88;;;3.60;;
28309;SDS011;15571;50.974;13.936;2022-07-12T07:56:40;5.53;;;4.00;;
28309;SDS011;15571;50.974;13.936;2022-07-12T07:59:44;5.32;;;3.65;;
28309;SDS011;15571;50.974;13.936;2022-07-12T08:02:46;6.72;;;3.85;;
28309;SDS011;15571;50.974;13.936;2022-07-12T08:05:51;5.97;;;3.50;;
28309;SDS011;15571;50.974;13.936;2022-07-12T08:08:58;5.05;;;3.70;;
28309;SDS011;15571;50.974;13.936;2022-07-12T08:12:05;4.70;;;2.90;;
28309;SDS011;15571;50.974;13.936;2022-07-12T08:15:09;2.65;;;2.45;;
28309;SDS011;15571;50.974;13.936;2022-07-12T08:18:14;6.28;;;3.10;;
28309;SDS011;15571;50.974;13.936;2022-07-12T08:21:19;3.03;;;2.20;;
28309;SDS011;15571;50.974;13.936;2022-07-12T08:24:23;3.17;;;2.03;;
28309;SDS011;15571;50.974;13.936;2022-07-12T08:27:26;4.72;;;3.00;;
28309;SDS011;15571;50.974;13.936;2022-07-12T08:30:39;4.00;;;2.17;;
28309;SDS011;15571;50.974;13.936;2022-07-12T08:33:42;4.07;;;2.50;;
28309;SDS011;15571;50.974;13.936;2022-07-12T08:36:47;3.65;;;2.28;;
28309;SDS011;15571;50.974;13.936;2022-07-12T08:39:50;4.82;;;2.30;;
28309;SDS011;15571;50.974;13.936;2022-07-12T08:42:56;5.28;;;2.67;;
28309;SDS011;15571;50.974;13.936;2022-07-12T08:46:04;4.57;;;2.97;;
28309;SDS011;15571;50.974;13.936;2022-07-12T08:49:07;2.67;;;1.85;;
28309;SDS011;15571;50.974;13.936;2022-07-12T08:52:25;3.25;;;2.10;;
28309;SDS011;15571;50.974;13.936;2022-07-12T08:55:29;1.73;;;1.60;;
28309;SDS011;15571;50.974;13.936;2022-07-12T08:58:34;6.35;;;2.17;;
28309;SDS011;15571;50.974;13.936;2022-07-12T09:01:44;3.88;;;2.08;;
28309;SDS011;15571;50.974;13.936;2022-07-12T09:04:48;2.90;;;1.95;;
28309;SDS011;15571;50.974;13.936;2022-07-12T09:08:09;3.13;;;1.67;;
28309;SDS011;15571;50.974;13.936;2022-07-12T09:11:12;4.47;;;1.80;;
28309;SDS011;15571;50.974;13.936;2022-07-12T09:14:20;2.17;;;1.40;;
28309;SDS011;15571;50.974;13.936;2022-07-12T09:17:23;1.58;;;1.48;;
28309;SDS011;15571;50.974;13.936;2022-07-12T09:20:26;2.65;;;1.60;;
28309;SDS011;15571;50.974;13.936;2022-07-12T09:23:30;6.97;;;1.75;;
28309;SDS011;15571;50.974;13.936;2022-07-12T09:26:33;4.18;;;1.42;;
28309;SDS011;15571;50.974;13.936;2022-07-12T09:29:47;2.65;;;1.50;;
28309;SDS011;15571;50.974;13.936;2022-07-12T09:32:51;1.92;;;1.35;;
28309;SDS011;15571;50.974;13.936;2022-07-12T09:36:13;2.10;;;1.40;;
28309;SDS011;15571;50.974;13.936;2022-07-12T09:39:20;1.10;;;0.90;;
28309;SDS011;15571;50.974;13.936;2022-07-12T09:42:25;1.58;;;1.10;;
28309;SDS011;15571;50.974;13.936;2022-07-12T09:45:30;1.10;;;1.00;;
28309;SDS011;15571;50.974;13.936;2022-07-12T09:48:34;1.85;;;0.90;;
28309;SDS011;15571;50.974;13.936;2022-07-12T09:51:38;1.85;;;1.10;;
28309;SDS011;15571;50.974;13.936;2022-07-12T09:54:45;4.57;;;1.00;;
28309;SDS011;15571;50.974;13.936;2022-07-12T09:57:48;2.30;;;1.00;;
28309;SDS011;15571;50.974;13.936;2022-07-12T10:00:58;3.25;;;1.10;;
28309;SDS011;15571;50.974;13.936;2022-07-12T14:51:59;1.33;;;0.90;;
28309;SDS011;15571;50.974;13.936;2022-07-12T14:55:06;1.20;;;0.52;;
28309;SDS011;15571;50.974;13.936;2022-07-12T14:58:10;3.22;;;0.63;;
28309;SDS011;15571;50.974;13.936;2022-07-12T15:01:13;1.33;;;0.73;;
28309;SDS011;15571;50.974;13.936;2022-07-12T15:04:16;2.00;;;0.88;;
28309;SDS011;15571;50.974;13.936;2022-07-12T15:07:23;1.80;;;0.70;;
28309;SDS011;15571;50.974;13.936;2022-07-12T15:10:26;0.80;;;0.50;;
28309;SDS011;15571;50.974;13.936;2022-07-12T15:13:30;1.30;;;0.70;;
28309;SDS011;15571;50.974;13.936;2022-07-12T15:16:33;1.67;;;0.88;;
28309;SDS011;15571;50.974;13.936;2022-07-12T15:19:40;0.77;;;0.50;;
28309;SDS011;15571;50.974;13.936;2022-07-12T15:22:44;2.78;;;0.70;;
28309;SDS011;15571;50.974;13.936;2022-07-12T15:25:47;0.50;;;0.50;;
28309;SDS011;15571;50.974;13.936;2022-07-12T15:28:51;2.47;;;0.90;;
28309;SDS011;15571;50.974;13.936;2022-07-12T15:31:56;0.90;;;0.50;;
28309;SDS011;15571;50.974;13.936;2022-07-12T15:34:59;1.45;;;0.50;;
28309;SDS011;15571;50.974;13.936;2022-07-12T15:38:03;1.92;;;0.73;;
28309;SDS011;15571;50.974;13.936;2022-07-12T15:41:06;0.75;;;0.60;;
28309;SDS011;15571;50.974;13.936;2022-07-12T15:44:10;0.50;;;0.40;;
28309;SDS011;15571;50.974;13.936;2022-07-12T15:47:13;0.70;;;0.68;;
28309;SDS011;15571;50.974;13.936;2022-07-12T15:50:17;0.98;;;0.50;;
28309;SDS011;15571;50.974;13.936;2022-07-12T15:53:24;0.77;;;0.60;;
28309;SDS011;15571;50.974;13.936;2022-07-12T15:56:31;0.65;;;0.52;;
28309;SDS011;15571;50.974;13.936;2022-07-12T15:59:35;0.57;;;0.50;;
28309;SDS011;15571;50.974;13.936;2022-07-12T16:02:40;2.65;;;0.60;;
28309;SDS011;15571;50.974;13.936;2022-07-12T16:05:47;1.05;;;0.57;;
28309;SDS011;15571;50.974;13.936;2022-07-12T16:08:53;0.98;;;0.50;;
28309;SDS011;15571;50.974;13.936;2022-07-12T16:11:56;0.77;;;0.60;;
28309;SDS011;15571;50.974;13.936;2022-07-12T16:14:59;1.13;;;0.40;;
